Weather at Murray Field

Public forecast

Using degrees Celsius for public forecast. Weather courtesy of forecast.io.

Closest aviation weather report (METAR) to Murray Field

Closest report is Perth Jandakot Airport, 24.7 nm (45.8 km) N. Retrieved 2020/11/29 15:30 UTC (0 seconds ago):

YPJT 291530Z AUTO 28007KT 9999 // SCT025 SCT033 BKN044 16/14 Q1009

Closest aviation forecast (TAF) to Murray Field

Forecast is more than 12 hours old.

Closest forecast is Perth Jandakot Airport, 24.7 nm (45.8 km) N. Retrieved 2020-11-29 00:00 UTC (15 hours ago):

TAF YPJT 282323Z 2900/2918 23014KT 9999 FEW040 FM291100 23011KT 9999 SCT030 FM291300 26011KT 9999 -SHRA BKN025